createdAt,value
2022-11-13T00:02:12.634Z,5.40
2022-11-13T00:07:23.721Z,5.50
2022-11-13T00:12:34.750Z,5.60
2022-11-13T00:17:46.279Z,5.60
2022-11-13T00:22:58.058Z,5.60
2022-11-13T00:28:09.191Z,5.60
2022-11-13T00:33:38.299Z,5.40
2022-11-13T00:38:52.181Z,5.20
2022-11-13T00:44:04.253Z,5.20
2022-11-13T00:49:14.964Z,5.30
2022-11-13T00:54:26.119Z,5.40
2022-11-13T00:59:36.890Z,5.40
2022-11-13T01:04:47.624Z,5.40
2022-11-13T01:09:59.923Z,5.20
2022-11-13T01:15:11.014Z,5.30
2022-11-13T01:20:23.745Z,5.20
2022-11-13T01:25:34.814Z,5.20
2022-11-13T01:30:45.736Z,5.10
2022-11-13T01:36:04.577Z,5.10
2022-11-13T01:41:24.878Z,4.90
2022-11-13T01:46:42.384Z,4.70
2022-11-13T01:52:07.102Z,4.60
2022-11-13T01:57:18.662Z,4.30
2022-11-13T02:08:46.586Z,4.20
2022-11-13T02:13:58.124Z,4.20
2022-11-13T02:19:17.201Z,4.20
2022-11-13T02:24:45.603Z,4.20
2022-11-13T02:29:57.073Z,4.10
2022-11-13T02:35:08.126Z,4.00
2022-11-13T02:40:19.433Z,3.90
2022-11-13T02:45:30.668Z,3.70
2022-11-13T02:50:41.519Z,3.50
2022-11-13T02:55:58.396Z,3.30
2022-11-13T03:01:09.030Z,3.20
2022-11-13T03:06:19.872Z,3.10
2022-11-13T03:11:30.793Z,3.10
2022-11-13T03:16:41.703Z,3.00
2022-11-13T03:21:52.914Z,2.90
2022-11-13T03:27:04.020Z,2.80
2022-11-13T03:32:14.962Z,2.70
2022-11-13T03:37:27.690Z,2.60
2022-11-13T03:42:39.993Z,2.50
2022-11-13T03:47:51.168Z,2.50
2022-11-13T03:53:03.437Z,2.40
2022-11-13T03:58:14.398Z,2.40
2022-11-13T04:03:24.978Z,2.40
2022-11-13T04:08:36.134Z,2.30
2022-11-13T04:13:46.637Z,2.30
2022-11-13T04:18:57.574Z,2.10
2022-11-13T04:24:08.621Z,2.10
2022-11-13T04:29:19.622Z,2.00
2022-11-13T04:34:30.618Z,2.10
2022-11-13T04:39:41.213Z,1.90
2022-11-13T04:44:52.693Z,1.80
2022-11-13T04:50:04.191Z,1.60
2022-11-13T04:55:17.662Z,1.60
2022-11-13T05:00:28.210Z,1.60
2022-11-13T05:05:38.970Z,1.60
2022-11-13T05:10:49.695Z,1.60
2022-11-13T05:16:10.598Z,1.50
2022-11-13T05:21:21.604Z,1.40
2022-11-13T05:26:32.354Z,1.40
2022-11-13T05:31:43.193Z,1.30
2022-11-13T05:36:54.211Z,1.30
2022-11-13T05:42:05.903Z,1.40
2022-11-13T05:47:16.661Z,1.40
2022-11-13T05:52:27.603Z,1.50
2022-11-13T05:57:38.434Z,1.50
2022-11-13T06:02:49.471Z,1.50
2022-11-13T06:08:00.693Z,1.50
2022-11-13T06:13:11.328Z,1.50
2022-11-13T06:18:26.764Z,1.40
2022-11-13T06:23:38.913Z,1.40
2022-11-13T06:28:50.973Z,1.40
2022-11-13T06:34:02.463Z,1.30
2022-11-13T06:39:13.588Z,1.30
2022-11-13T06:44:24.281Z,1.40
2022-11-13T06:49:35.373Z,1.50
2022-11-13T06:54:46.951Z,1.70
2022-11-13T06:59:57.797Z,1.70
2022-11-13T07:05:09.133Z,1.90
2022-11-13T07:10:19.822Z,2.00
2022-11-13T07:15:33.903Z,2.10
2022-11-13T07:20:44.884Z,2.30
2022-11-13T07:25:55.884Z,2.50
2022-11-13T07:31:07.482Z,4.10
2022-11-13T07:36:18.557Z,7.50
2022-11-13T07:41:29.923Z,10.70
2022-11-13T07:46:40.546Z,10.20
2022-11-13T07:51:51.550Z,8.40
2022-11-13T07:57:02.620Z,7.30
2022-11-13T08:02:15.941Z,6.30
2022-11-13T08:07:27.414Z,5.90
2022-11-13T08:12:38.352Z,5.70
2022-11-13T08:17:57.679Z,5.70
2022-11-13T08:23:09.069Z,5.80
2022-11-13T08:28:20.277Z,5.80
2022-11-13T08:33:32.840Z,6.70
2022-11-13T08:38:38.809Z,7.80
2022-11-13T08:43:49.734Z,9.10
2022-11-13T08:49:00.654Z,10.20
2022-11-13T08:54:11.863Z,12.00
2022-11-13T08:59:23.820Z,14.10
2022-11-13T09:04:34.428Z,15.70
2022-11-13T09:09:45.492Z,16.00
2022-11-13T09:14:56.493Z,16.50
2022-11-13T09:20:11.324Z,15.90
2022-11-13T09:25:25.229Z,15.50
2022-11-13T09:31:32.473Z,15.10
2022-11-13T09:37:39.606Z,14.60
2022-11-13T09:43:46.934Z,15.50
2022-11-13T09:49:55.209Z,15.20
2022-11-13T09:56:02.450Z,16.40
2022-11-13T10:02:09.600Z,18.50
2022-11-13T10:08:16.783Z,20.20
2022-11-13T10:14:23.861Z,21.10
2022-11-13T10:20:31.181Z,21.40
2022-11-13T10:26:38.226Z,22.20
2022-11-13T10:32:45.537Z,22.90
2022-11-13T10:38:53.027Z,22.10
2022-11-13T10:44:59.975Z,23.30
2022-11-13T10:51:07.279Z,24.30
2022-11-13T10:57:14.501Z,24.10
2022-11-13T11:03:21.584Z,24.10
2022-11-13T11:09:31.338Z,23.60
2022-11-13T11:15:38.801Z,23.60
2022-11-13T11:21:45.863Z,22.00
2022-11-13T11:27:46.884Z,20.30
2022-11-13T11:33:35.429Z,20.30
2022-11-13T11:39:25.174Z,18.50
2022-11-13T11:44:54.966Z,17.50
2022-11-13T11:50:17.991Z,15.50
2022-11-13T11:55:43.799Z,14.80
2022-11-13T12:01:04.973Z,13.70
2022-11-13T12:06:34.686Z,12.70
2022-11-13T12:12:20.719Z,11.70
2022-11-13T12:17:43.737Z,11.20
2022-11-13T12:23:22.027Z,11.20
2022-11-13T12:28:48.209Z,11.30
2022-11-13T12:34:04.483Z,11.20
2022-11-13T12:39:47.113Z,11.10
2022-11-13T12:45:31.182Z,11.00
2022-11-13T12:50:42.197Z,10.90
2022-11-13T12:56:00.453Z,10.60
2022-11-13T13:01:11.260Z,10.60
2022-11-13T13:06:39.416Z,10.60
2022-11-13T13:12:14.894Z,10.50
2022-11-13T13:17:26.097Z,10.50
2022-11-13T13:22:37.172Z,10.60
2022-11-13T13:27:57.728Z,10.50
2022-11-13T13:33:16.663Z,10.60
2022-11-13T13:38:50.946Z,10.50
2022-11-13T13:44:03.833Z,10.40
2022-11-13T13:49:18.031Z,10.20
2022-11-13T13:54:33.868Z,10.20
2022-11-13T13:59:47.723Z,10.20
2022-11-13T14:04:59.070Z,10.10
2022-11-13T14:10:17.650Z,10.20
2022-11-13T14:15:34.417Z,10.10
2022-11-13T14:20:48.050Z,10.10
2022-11-13T14:25:59.138Z,9.90
2022-11-13T14:31:13.600Z,9.80
2022-11-13T14:36:30.219Z,9.70
2022-11-13T14:41:53.203Z,9.70
2022-11-13T14:47:06.560Z,9.60
2022-11-13T14:52:25.998Z,9.50
2022-11-13T14:57:50.608Z,9.40
2022-11-13T15:03:03.151Z,9.30
2022-11-13T15:08:14.648Z,9.10
2022-11-13T15:13:26.052Z,9.00
2022-11-13T15:18:39.227Z,8.90
2022-11-13T15:23:52.265Z,8.80
2022-11-13T15:29:02.898Z,8.60
2022-11-13T15:34:17.995Z,8.60
2022-11-13T15:39:31.748Z,8.50
2022-11-13T15:44:43.573Z,8.40
2022-11-13T15:50:13.813Z,8.30
2022-11-13T15:55:31.648Z,8.20
2022-11-13T16:00:48.032Z,8.20
2022-11-13T16:06:01.669Z,8.10
2022-11-13T16:11:17.765Z,8.10
2022-11-13T16:16:35.209Z,8.00
2022-11-13T16:21:46.123Z,8.00
2022-11-13T16:27:01.280Z,7.90
2022-11-13T16:32:22.762Z,7.90
2022-11-13T16:37:33.854Z,7.80
2022-11-13T16:42:45.799Z,7.90
2022-11-13T16:48:11.061Z,7.90
2022-11-13T16:53:25.105Z,7.90
2022-11-13T16:58:36.989Z,7.80
2022-11-13T17:03:54.020Z,7.80
2022-11-13T17:09:10.213Z,7.80
2022-11-13T17:14:30.721Z,8.00
2022-11-13T17:19:47.642Z,8.00
2022-11-13T17:24:59.037Z,8.00
2022-11-13T17:30:17.635Z,8.00
2022-11-13T17:35:28.613Z,8.00
2022-11-13T17:40:41.295Z,7.90
2022-11-13T17:46:04.232Z,7.80
2022-11-13T17:51:18.883Z,7.60
2022-11-13T17:56:36.098Z,7.50
2022-11-13T18:01:48.837Z,7.60
2022-11-13T18:07:07.799Z,7.50
2022-11-13T18:12:33.994Z,7.60
2022-11-13T18:17:49.549Z,7.60
2022-11-13T18:23:02.796Z,7.60
2022-11-13T18:28:16.626Z,7.80
2022-11-13T18:33:30.491Z,7.90
2022-11-13T18:38:51.325Z,8.00
2022-11-13T18:44:07.479Z,8.10
2022-11-13T18:49:18.914Z,7.90
2022-11-13T18:54:44.045Z,8.10
2022-11-13T19:00:00.110Z,8.10
2022-11-13T19:05:16.932Z,8.20
2022-11-13T19:10:28.531Z,8.30
2022-11-13T19:15:44.123Z,8.40
2022-11-13T19:20:57.110Z,8.50
2022-11-13T19:26:22.771Z,8.60
2022-11-13T19:31:35.695Z,8.60
2022-11-13T19:36:51.676Z,8.70
2022-11-13T19:42:04.398Z,8.80
2022-11-13T19:47:21.821Z,8.70
2022-11-13T19:52:35.697Z,8.70
2022-11-13T19:57:47.008Z,8.70
2022-11-13T20:03:01.598Z,8.80
2022-11-13T20:08:24.060Z,8.90
2022-11-13T20:13:41.440Z,9.00
2022-11-13T20:18:59.548Z,8.90
2022-11-13T20:24:12.912Z,8.90
2022-11-13T20:29:25.294Z,8.70
2022-11-13T20:34:39.287Z,8.70
2022-11-13T20:39:54.342Z,8.70
2022-11-13T20:45:06.601Z,8.80
2022-11-13T20:50:17.719Z,8.80
2022-11-13T20:55:29.829Z,8.70
2022-11-13T21:00:40.564Z,8.70
2022-11-13T21:05:52.056Z,8.70
2022-11-13T21:11:06.158Z,8.60
2022-11-13T21:16:18.313Z,8.50
2022-11-13T21:21:33.250Z,8.50
2022-11-13T21:26:44.098Z,8.40
2022-11-13T21:31:55.121Z,8.30
2022-11-13T21:37:08.421Z,8.40
2022-11-13T21:42:23.573Z,8.50
2022-11-13T21:47:34.413Z,8.50
2022-11-13T21:52:45.959Z,8.40
2022-11-13T21:57:57.011Z,8.50
2022-11-13T22:03:08.288Z,8.40
2022-11-13T22:08:19.287Z,8.40
2022-11-13T22:13:30.982Z,8.50
2022-11-13T22:18:43.531Z,8.50
2022-11-13T22:23:56.715Z,8.50
2022-11-13T22:29:08.865Z,8.50
2022-11-13T22:34:19.917Z,8.50
2022-11-13T22:39:30.876Z,8.60
2022-11-13T22:44:55.576Z,8.60
2022-11-13T22:50:07.316Z,8.60
2022-11-13T22:55:18.248Z,8.60
2022-11-13T23:00:29.493Z,8.60
2022-11-13T23:05:40.630Z,8.60
2022-11-13T23:10:55.230Z,8.60
2022-11-13T23:16:06.171Z,8.60
2022-11-13T23:21:18.486Z,8.60
2022-11-13T23:26:29.416Z,8.50
2022-11-13T23:31:46.714Z,8.60
2022-11-13T23:36:57.509Z,8.50
2022-11-13T23:42:08.373Z,8.50
2022-11-13T23:47:19.389Z,8.40
2022-11-13T23:52:30.433Z,8.40
2022-11-13T23:57:41.842Z,8.40
